Argonia, KS

5:09 PM CDT on September 30, 2014 (GMT -0500)
Anthony Medical Center | Change Station
CLOSE
Current Station
Personal Weather Station
Location: Anthony, KS
Elevation: 1355 ft
Nearby Weather Stations
4.1 Earthquake: Perry, Oklahoma (19 hours ago)  

Elev 1355 ft 37.16 °N, 98.02 °W | Updated 3 minutes ago

Mostly Cloudy
Mostly Cloudy
87.1 °F
Feels Like 86 °F
N
7.0
Wind Variable Wind from SSW
Gusts 8.0 mph

Today
High -- | Low -- °F
--% Chance of Precip.
Yesterday
High -- | Low -- °F
Precip. -- in
7:25 AM 7:15 PM
Waxing Crescent, 40% visible
Pressure 29.68 in
Visibility 10.0 miles
Clouds Scattered Clouds 6000 ft
Scattered Clouds 12000 ft
Heat Index 86 °F
Dew Point 58 °F
Humidity 38%
Rainfall 0.00 in
Snow Depth Not available.
UV 2 out of 12
Pollen 4.50 out of 12
Air Quality Not available.
Flu Activity Not available.
METAR KICT 302153Z 17019KT 10SM SCT060 SCT120 29/14 A2972 RMK AO2 PK WND 15028/2123 SLP050 TCU DSNT SW NW T02940144

More Conditions Fewer Conditions

Pressure 29.68 in
Visibility 10.0 miles
Clouds Scattered Clouds 6000 ft
Scattered Clouds 12000 ft
Heat Index 86 °F
Dew Point 58 °F
Humidity 38%
Rainfall 0.00 in
Snow Depth Not available.
UV 2 out of 12
Pollen 4.50 out of 12
Air Quality Not available.
Flu Activity Not available.
METAR KICT 302153Z 17019KT 10SM SCT060 SCT120 29/14 A2972 RMK AO2 PK WND 15028/2123 SLP050 TCU DSNT SW NW T02940144

More Conditions Fewer Conditions

10-Day Weather Forecast

Almanac

Astronomy

Sep. 30, 2014 Rise Set
Actual Time 7:25 AM CDT 7:15 PM CDT
Civil Twilight 6:59 AM CDT 7:41 PM CDT
Nautical Twilight 6:29 AM CDT 8:11 PM CDT
Astronomical Twilight 5:58 AM CDT 8:42 PM CDT
Moon 1:29 PM CDT 11:53 PM CDT
Length of Visible Light 12h 42m
Length of Day
11h 50m
Tomorrow will be 2m 21s shorter.
Waxing Crescent, 40% of the Moon is Illuminated
Today
Waxing Crescent
Oct 1
First Quarter
Oct 8
Full
Oct 15
Last Quarter
Oct 23
New

Today's Extremes

State Highs State Lows

Community

WunderPhotos

Upload Photos

1,757,759 photos uploaded!

Nearby

Snow Depth

Station Depth Elevation
No new snow has been reported.

Earthquake Activity

City Distance Mag. Time & Date
Perry, Oklahoma 80 miles 2.6 2:34 PM CDT
2014-09-30
Harper, Kansas 10 miles 2.9 1:49 PM CDT
2014-09-30
Yale, Oklahoma 92 miles 2.6 11:29 AM CDT
2014-09-30
Harper, Kansas 9 miles 3.1 10:24 AM CDT
2014-09-30
Minimum magnitude displayed is 2.5.

Coastal Water Temperatures

Place Temperature
No Stations Reporting

Nearby Weather Stations